Terminal Aerodrome Forecast
Issued by NWS

Home | Current Version | Previous Version | Text Only | Print | Product List | Glossary On
Versions: 1 2 3 4 5 6 7 8 9 10 11 12 13
000
FTUS42 TJSJ 240544
TAFIST
TAF
TIST 240544Z 2406/2506 09014KT P6SM VCSH SCT025 BKN050 OVC090
      TEMPO 2406/2408 5SM RA BR FEW010 SCT015 BKN025
     FM241500 13015G22KT P6SM RA VCTS SCT025CB BKN050 OVC100
     FM242200 10011KT P6SM FEW030 SCT100=

USA.gov is the U.S. government's official web portal to all federal, state and local government web resources and services.